Terminal Aerodrome Forecast
Issued by NWS Spokane, WA

Home | Current Version | Previous Version | Text Only | Print | Product List | Glossary On
Versions: 1 2 3 4 5 6 7 8 9 10 11 12 13 14 15 16 17 18 19 20 21 22 23
000
FTUS46 KOTX 222328
TAFEAT
TAF
KEAT 222328Z 2300/2324 27005KT P6SM -SHRA VCTS FEW040 SCT060CB
      BKN080
     FM230500 32006KT P6SM SCT080 BKN100
     FM230900 30007KT P6SM -SHRA SCT070 OVC100
     FM231800 29008KT P6SM -TSRA SCT050 BKN070CB BKN100=

USA.gov is the U.S. government's official web portal to all federal, state and local government web resources and services.